sensor_id;sensor_type;location;lat;lon;timestamp;temperature;humidity
66312;HTU21D;53114;51.138;6.008;2023-07-13T00:00:37;17.47;80.33
66312;HTU21D;53114;51.138;6.008;2023-07-13T00:03:04;17.40;80.32
66312;HTU21D;53114;51.138;6.008;2023-07-13T00:05:30;17.30;81.56
66312;HTU21D;53114;51.138;6.008;2023-07-13T00:07:57;17.23;82.53
66312;HTU21D;53114;51.138;6.008;2023-07-13T00:10:23;17.23;85.04
66312;HTU21D;53114;51.138;6.008;2023-07-13T00:12:49;17.28;85.16
66312;HTU21D;53114;51.138;6.008;2023-07-13T00:15:24;17.32;83.98
66312;HTU21D;53114;51.138;6.008;2023-07-13T00:17:52;17.33;83.73
66312;HTU21D;53114;51.138;6.008;2023-07-13T00:20:20;17.37;83.55
66312;HTU21D;53114;51.138;6.008;2023-07-13T00:22:48;17.33;82.70
66312;HTU21D;53114;51.138;6.008;2023-07-13T00:25:15;17.29;83.46
66312;HTU21D;53114;51.138;6.008;2023-07-13T00:27:43;17.24;83.16
66312;HTU21D;53114;51.138;6.008;2023-07-13T00:30:10;17.21;84.13
66312;HTU21D;53114;51.138;6.008;2023-07-13T00:32:37;17.23;85.09
66312;HTU21D;53114;51.138;6.008;2023-07-13T00:35:04;17.30;85.07
66312;HTU21D;53114;51.138;6.008;2023-07-13T00:37:31;17.35;84.68
66312;HTU21D;53114;51.138;6.008;2023-07-13T00:39:57;17.39;83.57
66312;HTU21D;53114;51.138;6.008;2023-07-13T00:42:23;17.44;83.59
66312;HTU21D;53114;51.138;6.008;2023-07-13T00:47:34;17.50;82.92
66312;HTU21D;53114;51.138;6.008;2023-07-13T00:50:01;17.50;82.21
66312;HTU21D;53114;51.138;6.008;2023-07-13T00:52:28;17.51;82.20
66312;HTU21D;53114;51.138;6.008;2023-07-13T00:54:56;17.54;82.62
66312;HTU21D;53114;51.138;6.008;2023-07-13T00:57:22;17.51;82.51
66312;HTU21D;53114;51.138;6.008;2023-07-13T00:59:58;17.46;82.82
66312;HTU21D;53114;51.138;6.008;2023-07-13T01:02:28;17.33;83.22
66312;HTU21D;53114;51.138;6.008;2023-07-13T01:04:56;17.31;84.37
66312;HTU21D;53114;51.138;6.008;2023-07-13T01:07:22;17.29;84.73
66312;HTU21D;53114;51.138;6.008;2023-07-13T01:09:48;17.23;84.37
66312;HTU21D;53114;51.138;6.008;2023-07-13T01:12:14;17.16;85.84
66312;HTU21D;53114;51.138;6.008;2023-07-13T01:14:41;17.11;86.09
66312;HTU21D;53114;51.138;6.008;2023-07-13T01:17:09;17.08;88.66
66312;HTU21D;53114;51.138;6.008;2023-07-13T01:19:44;17.10;88.68
66312;HTU21D;53114;51.138;6.008;2023-07-13T01:22:16;17.14;88.28
66312;HTU21D;53114;51.138;6.008;2023-07-13T01:24:47;17.19;88.88
66312;HTU21D;53114;51.138;6.008;2023-07-13T01:27:17;17.21;88.64
66312;HTU21D;53114;51.138;6.008;2023-07-13T01:29:46;17.24;88.50
66312;HTU21D;53114;51.138;6.008;2023-07-13T01:32:16;17.26;88.69
66312;HTU21D;53114;51.138;6.008;2023-07-13T01:34:48;17.22;87.84
66312;HTU21D;53114;51.138;6.008;2023-07-13T01:37:17;17.20;88.70
66312;HTU21D;53114;51.138;6.008;2023-07-13T01:39:43;17.18;88.57
66312;HTU21D;53114;51.138;6.008;2023-07-13T01:42:09;17.18;88.94
66312;HTU21D;53114;51.138;6.008;2023-07-13T01:44:35;17.17;90.24
66312;HTU21D;53114;51.138;6.008;2023-07-13T01:47:01;17.18;90.05
66312;HTU21D;53114;51.138;6.008;2023-07-13T01:49:27;17.18;90.33
66312;HTU21D;53114;51.138;6.008;2023-07-13T01:51:53;17.18;90.54
66312;HTU21D;53114;51.138;6.008;2023-07-13T01:54:19;17.20;90.37
66312;HTU21D;53114;51.138;6.008;2023-07-13T01:56:45;17.20;90.51
66312;HTU21D;53114;51.138;6.008;2023-07-13T01:59:11;17.20;90.52
66312;HTU21D;53114;51.138;6.008;2023-07-13T02:01:37;17.21;91.27
66312;HTU21D;53114;51.138;6.008;2023-07-13T02:04:03;17.21;91.70
66312;HTU21D;53114;51.138;6.008;2023-07-13T02:06:32;17.22;91.92
66312;HTU21D;53114;51.138;6.008;2023-07-13T02:08:59;17.20;91.93
66312;HTU21D;53114;51.138;6.008;2023-07-13T02:11:25;17.13;91.91
66312;HTU21D;53114;51.138;6.008;2023-07-13T02:14:02;17.13;92.95
66312;HTU21D;53114;51.138;6.008;2023-07-13T02:16:29;17.09;93.50
66312;HTU21D;53114;51.138;6.008;2023-07-13T02:18:55;17.09;92.88
66312;HTU21D;53114;51.138;6.008;2023-07-13T02:21:22;17.05;93.86
66312;HTU21D;53114;51.138;6.008;2023-07-13T02:23:51;17.03;94.27
66312;HTU21D;53114;51.138;6.008;2023-07-13T02:26:18;17.03;94.78
66312;HTU21D;53114;51.138;6.008;2023-07-13T02:28:44;17.01;95.43
66312;HTU21D;53114;51.138;6.008;2023-07-13T02:31:14;17.00;95.96
66312;HTU21D;53114;51.138;6.008;2023-07-13T02:33:41;17.00;95.75
66312;HTU21D;53114;51.138;6.008;2023-07-13T02:36:08;17.00;96.16
66312;HTU21D;53114;51.138;6.008;2023-07-13T02:38:34;16.98;96.55
66312;HTU21D;53114;51.138;6.008;2023-07-13T02:41:06;16.98;96.91
66312;HTU21D;53114;51.138;6.008;2023-07-13T02:43:34;16.96;97.36
66312;HTU21D;53114;51.138;6.008;2023-07-13T02:46:01;16.94;97.33
66312;HTU21D;53114;51.138;6.008;2023-07-13T02:48:35;16.92;97.52
66312;HTU21D;53114;51.138;6.008;2023-07-13T02:51:01;16.80;97.87
66312;HTU21D;53114;51.138;6.008;2023-07-13T02:53:28;16.78;99.88
66312;HTU21D;53114;51.138;6.008;2023-07-13T02:55:54;16.80;100.64
66312;HTU21D;53114;51.138;6.008;2023-07-13T02:58:20;16.79;100.51
66312;HTU21D;53114;51.138;6.008;2023-07-13T03:00:47;16.78;100.53
66312;HTU21D;53114;51.138;6.008;2023-07-13T03:03:14;16.76;100.80
66312;HTU21D;53114;51.138;6.008;2023-07-13T03:05:43;16.76;101.59
66312;HTU21D;53114;51.138;6.008;2023-07-13T03:08:12;16.76;102.03
66312;HTU21D;53114;51.138;6.008;2023-07-13T03:10:39;16.79;101.90
66312;HTU21D;53114;51.138;6.008;2023-07-13T03:13:10;16.77;100.99
66312;HTU21D;53114;51.138;6.008;2023-07-13T03:15:36;16.77;100.96
66312;HTU21D;53114;51.138;6.008;2023-07-13T03:18:03;16.78;101.44
66312;HTU21D;53114;51.138;6.008;2023-07-13T03:20:31;16.81;101.62
66312;HTU21D;53114;51.138;6.008;2023-07-13T03:22:57;16.81;101.54
66312;HTU21D;53114;51.138;6.008;2023-07-13T03:25:23;16.78;101.55
66312;HTU21D;53114;51.138;6.008;2023-07-13T03:27:50;16.78;102.28
66312;HTU21D;53114;51.138;6.008;2023-07-13T03:30:16;16.77;102.46
66312;HTU21D;53114;51.138;6.008;2023-07-13T03:32:43;16.75;102.45
66312;HTU21D;53114;51.138;6.008;2023-07-13T03:35:10;16.72;102.85
66312;HTU21D;53114;51.138;6.008;2023-07-13T03:37:36;16.70;103.54
66312;HTU21D;53114;51.138;6.008;2023-07-13T03:40:10;16.71;103.92
66312;HTU21D;53114;51.138;6.008;2023-07-13T03:42:36;16.72;104.40
66312;HTU21D;53114;51.138;6.008;2023-07-13T03:45:03;16.71;104.57
66312;HTU21D;53114;51.138;6.008;2023-07-13T03:47:31;16.71;105.39
66312;HTU21D;53114;51.138;6.008;2023-07-13T03:49:57;16.72;105.66
66312;HTU21D;53114;51.138;6.008;2023-07-13T03:52:23;16.73;105.66
66312;HTU21D;53114;51.138;6.008;2023-07-13T03:54:49;16.75;106.01
66312;HTU21D;53114;51.138;6.008;2023-07-13T03:57:16;16.75;105.98
66312;HTU21D;53114;51.138;6.008;2023-07-13T03:59:42;16.75;106.24
66312;HTU21D;53114;51.138;6.008;2023-07-13T04:02:08;16.78;106.39
66312;HTU21D;53114;51.138;6.008;2023-07-13T04:04:34;16.79;106.43
66312;HTU21D;53114;51.138;6.008;2023-07-13T04:07:00;16.80;106.59
66312;HTU21D;53114;51.138;6.008;2023-07-13T04:09:26;16.81;106.73
66312;HTU21D;53114;51.138;6.008;2023-07-13T04:11:52;16.85;106.85
66312;HTU21D;53114;51.138;6.008;2023-07-13T04:14:18;16.85;107.27
66312;HTU21D;53114;51.138;6.008;2023-07-13T04:16:44;16.86;107.34
66312;HTU21D;53114;51.138;6.008;2023-07-13T04:19:11;16.88;107.34
66312;HTU21D;53114;51.138;6.008;2023-07-13T04:21:37;16.89;107.85
66312;HTU21D;53114;51.138;6.008;2023-07-13T04:24:03;16.89;107.73
66312;HTU21D;53114;51.138;6.008;2023-07-13T04:26:30;16.91;108.10
66312;HTU21D;53114;51.138;6.008;2023-07-13T04:28:56;16.90;108.77
66312;HTU21D;53114;51.138;6.008;2023-07-13T04:31:22;16.92;108.80
66312;HTU21D;53114;51.138;6.008;2023-07-13T04:33:49;16.94;109.14
66312;HTU21D;53114;51.138;6.008;2023-07-13T04:36:17;16.98;109.12
66312;HTU21D;53114;51.138;6.008;2023-07-13T04:38:43;16.98;108.79
66312;HTU21D;53114;51.138;6.008;2023-07-13T04:41:09;16.99;108.80
66312;HTU21D;53114;51.138;6.008;2023-07-13T04:43:35;17.01;109.07
66312;HTU21D;53114;51.138;6.008;2023-07-13T04:46:07;17.03;109.10
66312;HTU21D;53114;51.138;6.008;2023-07-13T04:48:33;17.04;108.49
66312;HTU21D;53114;51.138;6.008;2023-07-13T04:51:00;17.07;109.02
66312;HTU21D;53114;51.138;6.008;2023-07-13T04:53:28;17.08;109.40
66312;HTU21D;53114;51.138;6.008;2023-07-13T04:55:55;17.10;109.95
66312;HTU21D;53114;51.138;6.008;2023-07-13T04:58:24;17.14;109.82
66312;HTU21D;53114;51.138;6.008;2023-07-13T05:00:50;17.15;109.91
66312;HTU21D;53114;51.138;6.008;2023-07-13T05:03:16;17.17;110.05
66312;HTU21D;53114;51.138;6.008;2023-07-13T05:05:42;17.23;110.00
66312;HTU21D;53114;51.138;6.008;2023-07-13T05:08:08;17.28;109.71
66312;HTU21D;53114;51.138;6.008;2023-07-13T05:10:35;17.32;109.55
66312;HTU21D;53114;51.138;6.008;2023-07-13T05:13:01;17.43;109.27
66312;HTU21D;53114;51.138;6.008;2023-07-13T05:15:28;17.52;108.27
66312;HTU21D;53114;51.138;6.008;2023-07-13T05:17:54;17.62;107.06
66312;HTU21D;53114;51.138;6.008;2023-07-13T05:20:20;17.68;106.31
66312;HTU21D;53114;51.138;6.008;2023-07-13T05:22:46;17.76;106.10
66312;HTU21D;53114;51.138;6.008;2023-07-13T05:25:12;17.84;105.98
66312;HTU21D;53114;51.138;6.008;2023-07-13T05:27:39;17.92;105.27
66312;HTU21D;53114;51.138;6.008;2023-07-13T05:30:05;18.00;104.77
66312;HTU21D;53114;51.138;6.008;2023-07-13T05:32:33;18.12;104.53
66312;HTU21D;53114;51.138;6.008;2023-07-13T05:34:59;18.28;102.59
66312;HTU21D;53114;51.138;6.008;2023-07-13T05:37:25;18.43;101.89
66312;HTU21D;53114;51.138;6.008;2023-07-13T05:39:51;18.54;101.01
66312;HTU21D;53114;51.138;6.008;2023-07-13T05:42:17;18.57;98.75
66312;HTU21D;53114;51.138;6.008;2023-07-13T05:44:43;18.61;98.94
66312;HTU21D;53114;51.138;6.008;2023-07-13T05:47:08;18.66;98.84
66312;HTU21D;53114;51.138;6.008;2023-07-13T05:49:35;18.71;98.19
66312;HTU21D;53114;51.138;6.008;2023-07-13T05:52:01;18.77;98.47
66312;HTU21D;53114;51.138;6.008;2023-07-13T05:54:27;18.78;97.22
66312;HTU21D;53114;51.138;6.008;2023-07-13T05:56:54;18.79;98.22
66312;HTU21D;53114;51.138;6.008;2023-07-13T05:59:20;18.86;98.16
66312;HTU21D;53114;51.138;6.008;2023-07-13T06:01:46;18.92;96.85
66312;HTU21D;53114;51.138;6.008;2023-07-13T06:04:12;18.94;97.94
66312;HTU21D;53114;51.138;6.008;2023-07-13T06:06:38;18.95;97.78
66312;HTU21D;53114;51.138;6.008;2023-07-13T06:09:04;19.01;96.67
66312;HTU21D;53114;51.138;6.008;2023-07-13T06:11:30;19.00;95.97
66312;HTU21D;53114;51.138;6.008;2023-07-13T06:13:56;18.94;95.30
66312;HTU21D;53114;51.138;6.008;2023-07-13T06:16:22;18.99;95.88
66312;HTU21D;53114;51.138;6.008;2023-07-13T06:18:48;19.03;95.45
66312;HTU21D;53114;51.138;6.008;2023-07-13T06:21:18;19.14;94.25
66312;HTU21D;53114;51.138;6.008;2023-07-13T06:23:46;19.15;93.52
66312;HTU21D;53114;51.138;6.008;2023-07-13T06:26:14;19.23;93.52
66312;HTU21D;53114;51.138;6.008;2023-07-13T06:28:40;19.33;91.83
66312;HTU21D;53114;51.138;6.008;2023-07-13T06:31:09;19.32;91.30
66312;HTU21D;53114;51.138;6.008;2023-07-13T06:33:35;19.31;91.45
66312;HTU21D;53114;51.138;6.008;2023-07-13T06:36:03;19.33;90.85
66312;HTU21D;53114;51.138;6.008;2023-07-13T06:38:29;19.33;91.10
66312;HTU21D;53114;51.138;6.008;2023-07-13T06:40:55;19.33;92.16
66312;HTU21D;53114;51.138;6.008;2023-07-13T06:43:21;19.33;93.15
66312;HTU21D;53114;51.138;6.008;2023-07-13T06:45:48;19.33;93.46
66312;HTU21D;53114;51.138;6.008;2023-07-13T06:48:17;19.37;93.78
66312;HTU21D;53114;51.138;6.008;2023-07-13T06:50:44;19.44;93.77
66312;HTU21D;53114;51.138;6.008;2023-07-13T06:53:12;19.48;93.33
66312;HTU21D;53114;51.138;6.008;2023-07-13T06:55:38;19.51;93.30
66312;HTU21D;53114;51.138;6.008;2023-07-13T06:58:05;19.54;92.92
66312;HTU21D;53114;51.138;6.008;2023-07-13T07:00:31;19.55;93.81
66312;HTU21D;53114;51.138;6.008;2023-07-13T07:02:57;19.56;92.65
66312;HTU21D;53114;51.138;6.008;2023-07-13T07:05:23;19.52;93.10
66312;HTU21D;53114;51.138;6.008;2023-07-13T07:07:51;19.51;94.01
66312;HTU21D;53114;51.138;6.008;2023-07-13T07:10:18;19.56;94.64
66312;HTU21D;53114;51.138;6.008;2023-07-13T07:12:44;19.61;94.45
66312;HTU21D;53114;51.138;6.008;2023-07-13T07:15:11;19.70;94.01
66312;HTU21D;53114;51.138;6.008;2023-07-13T07:17:37;19.82;92.32
66312;HTU21D;53114;51.138;6.008;2023-07-13T07:20:04;19.89;91.85
66312;HTU21D;53114;51.138;6.008;2023-07-13T07:22:31;19.95;91.31
66312;HTU21D;53114;51.138;6.008;2023-07-13T07:24:57;20.00;91.27
66312;HTU21D;53114;51.138;6.008;2023-07-13T07:27:24;20.01;89.75
66312;HTU21D;53114;51.138;6.008;2023-07-13T07:29:50;19.92;89.88
66312;HTU21D;53114;51.138;6.008;2023-07-13T07:32:16;19.88;90.67
66312;HTU21D;53114;51.138;6.008;2023-07-13T07:34:42;19.92;91.61
66312;HTU21D;53114;51.138;6.008;2023-07-13T07:37:13;20.00;90.63
66312;HTU21D;53114;51.138;6.008;2023-07-13T07:39:39;20.07;90.60
66312;HTU21D;53114;51.138;6.008;2023-07-13T07:42:06;20.21;89.81
66312;HTU21D;53114;51.138;6.008;2023-07-13T07:44:32;20.26;88.06
66312;HTU21D;53114;51.138;6.008;2023-07-13T07:46:59;20.34;89.38
66312;HTU21D;53114;51.138;6.008;2023-07-13T07:49:25;20.51;88.54
66312;HTU21D;53114;51.138;6.008;2023-07-13T07:51:51;20.60;87.17
66312;HTU21D;53114;51.138;6.008;2023-07-13T07:54:17;20.65;86.47
66312;HTU21D;53114;51.138;6.008;2023-07-13T07:56:44;20.63;85.35
66312;HTU21D;53114;51.138;6.008;2023-07-13T07:59:10;20.61;85.70
66312;HTU21D;53114;51.138;6.008;2023-07-13T08:01:36;20.62;85.64
66312;HTU21D;53114;51.138;6.008;2023-07-13T08:04:03;20.65;84.79
66312;HTU21D;53114;51.138;6.008;2023-07-13T08:06:29;20.73;85.25
66312;HTU21D;53114;51.138;6.008;2023-07-13T08:08:55;20.92;85.26
66312;HTU21D;53114;51.138;6.008;2023-07-13T08:11:21;21.17;82.64
66312;HTU21D;53114;51.138;6.008;2023-07-13T08:13:49;21.34;80.98
66312;HTU21D;53114;51.138;6.008;2023-07-13T08:16:15;21.45;79.56
66312;HTU21D;53114;51.138;6.008;2023-07-13T08:18:41;21.52;79.99
66312;HTU21D;53114;51.138;6.008;2023-07-13T08:21:10;21.64;78.82
66312;HTU21D;53114;51.138;6.008;2023-07-13T08:23:36;21.69;78.91
66312;HTU21D;53114;51.138;6.008;2023-07-13T08:26:03;21.72;78.30
66312;HTU21D;53114;51.138;6.008;2023-07-13T08:28:30;21.80;77.40
66312;HTU21D;53114;51.138;6.008;2023-07-13T08:31:03;21.95;75.56
66312;HTU21D;53114;51.138;6.008;2023-07-13T08:33:29;21.96;74.21
66312;HTU21D;53114;51.138;6.008;2023-07-13T08:35:55;22.25;72.99
66312;HTU21D;53114;51.138;6.008;2023-07-13T08:38:21;23.08;68.78
66312;HTU21D;53114;51.138;6.008;2023-07-13T08:40:56;23.28;64.73
66312;HTU21D;53114;51.138;6.008;2023-07-13T08:43:28;23.17;64.53
66312;HTU21D;53114;51.138;6.008;2023-07-13T08:46:02;23.39;64.08
66312;HTU21D;53114;51.138;6.008;2023-07-13T08:48:37;23.47;63.83
66312;HTU21D;53114;51.138;6.008;2023-07-13T08:54:23;26.05;52.51
66312;HTU21D;53114;51.138;6.008;2023-07-13T08:56:53;26.10;52.45
66312;HTU21D;53114;51.138;6.008;2023-07-13T08:59:25;25.45;53.52
66312;HTU21D;53114;51.138;6.008;2023-07-13T09:04:34;24.54;58.03
66312;HTU21D;53114;51.138;6.008;2023-07-13T09:10:14;24.30;58.54
66312;HTU21D;53114;51.138;6.008;2023-07-13T09:15:32;23.69;59.83
66312;HTU21D;53114;51.138;6.008;2023-07-13T09:18:18;23.84;60.19
66312;HTU21D;53114;51.138;6.008;2023-07-13T09:23:47;24.19;59.62
66312;HTU21D;53114;51.138;6.008;2023-07-13T09:26:19;24.73;60.03
66312;HTU21D;53114;51.138;6.008;2023-07-13T09:28:52;25.64;58.09
66312;HTU21D;53114;51.138;6.008;2023-07-13T09:31:26;26.21;51.95
66312;HTU21D;53114;51.138;6.008;2023-07-13T09:33:55;25.88;50.91
66312;HTU21D;53114;51.138;6.008;2023-07-13T09:36:22;25.47;51.89
66312;HTU21D;53114;51.138;6.008;2023-07-13T09:39:04;25.25;52.95
66312;HTU21D;53114;51.138;6.008;2023-07-13T09:41:51;25.37;52.01
66312;HTU21D;53114;51.138;6.008;2023-07-13T09:44:29;25.16;51.59
66312;HTU21D;53114;51.138;6.008;2023-07-13T09:46:57;24.83;51.45
66312;HTU21D;53114;51.138;6.008;2023-07-13T09:49:43;24.57;52.60
66312;HTU21D;53114;51.138;6.008;2023-07-13T09:52:15;24.49;53.01
66312;HTU21D;53114;51.138;6.008;2023-07-13T09:54:45;24.56;53.70
66312;HTU21D;53114;51.138;6.008;2023-07-13T09:57:20;25.14;54.13
66312;HTU21D;53114;51.138;6.008;2023-07-13T09:59:51;26.40;51.38
66312;HTU21D;53114;51.138;6.008;2023-07-13T10:02:27;27.10;46.40
66312;HTU21D;53114;51.138;6.008;2023-07-13T10:05:03;27.32;46.81
66312;HTU21D;53114;51.138;6.008;2023-07-13T10:07:30;27.22;44.89
66312;HTU21D;53114;51.138;6.008;2023-07-13T10:09:58;26.38;46.22
66312;HTU21D;53114;51.138;6.008;2023-07-13T10:12:28;26.24;47.61
66312;HTU21D;53114;51.138;6.008;2023-07-13T10:14:59;25.69;48.89
66312;HTU21D;53114;51.138;6.008;2023-07-13T10:17:31;25.31;50.40
66312;HTU21D;53114;51.138;6.008;2023-07-13T10:20:07;24.97;51.56
66312;HTU21D;53114;51.138;6.008;2023-07-13T10:25:28;24.16;53.46
66312;HTU21D;53114;51.138;6.008;2023-07-13T10:28:29;23.79;54.68
66312;HTU21D;53114;51.138;6.008;2023-07-13T10:31:01;23.75;55.40
66312;HTU21D;53114;51.138;6.008;2023-07-13T10:33:27;24.26;55.08
66312;HTU21D;53114;51.138;6.008;2023-07-13T10:38:47;24.70;52.78
66312;HTU21D;53114;51.138;6.008;2023-07-13T10:41:23;24.66;52.80
66312;HTU21D;53114;51.138;6.008;2023-07-13T10:43:55;24.65;52.96
66312;HTU21D;53114;51.138;6.008;2023-07-13T10:46:25;24.78;52.50
66312;HTU21D;53114;51.138;6.008;2023-07-13T10:49:07;24.94;51.53
66312;HTU21D;53114;51.138;6.008;2023-07-13T10:51:34;25.06;51.17
66312;HTU21D;53114;51.138;6.008;2023-07-13T10:54:20;25.25;50.69
66312;HTU21D;53114;51.138;6.008;2023-07-13T10:57:21;25.44;50.47
66312;HTU21D;53114;51.138;6.008;2023-07-13T11:00:17;25.65;50.94
66312;HTU21D;53114;51.138;6.008;2023-07-13T11:02:59;25.67;50.63
66312;HTU21D;53114;51.138;6.008;2023-07-13T11:05:33;25.51;49.89
66312;HTU21D;53114;51.138;6.008;2023-07-13T11:19:23;25.66;49.35
66312;HTU21D;53114;51.138;6.008;2023-07-13T11:21:34;25.67;48.93
66312;HTU21D;53114;51.138;6.008;2023-07-13T11:24:15;25.56;49.26
66312;HTU21D;53114;51.138;6.008;2023-07-13T11:29:36;26.06;49.12
66312;HTU21D;53114;51.138;6.008;2023-07-13T11:32:23;26.19;47.57
66312;HTU21D;53114;51.138;6.008;2023-07-13T11:34:53;26.04;47.43
66312;HTU21D;53114;51.138;6.008;2023-07-13T11:37:21;26.04;47.34
66312;HTU21D;53114;51.138;6.008;2023-07-13T11:39:51;26.20;47.47
66312;HTU21D;53114;51.138;6.008;2023-07-13T11:42:21;26.55;47.54
66312;HTU21D;53114;51.138;6.008;2023-07-13T11:44:49;26.71;46.02
66312;HTU21D;53114;51.138;6.008;2023-07-13T11:47:22;26.81;45.49
66312;HTU21D;53114;51.138;6.008;2023-07-13T11:49:50;26.89;44.77
66312;HTU21D;53114;51.138;6.008;2023-07-13T11:52:22;26.52;44.35
66312;HTU21D;53114;51.138;6.008;2023-07-13T11:54:53;26.36;45.12
66312;HTU21D;53114;51.138;6.008;2023-07-13T11:57:36;26.66;45.00
66312;HTU21D;53114;51.138;6.008;2023-07-13T12:00:12;26.91;45.24
66312;HTU21D;53114;51.138;6.008;2023-07-13T12:02:47;26.99;43.71
66312;HTU21D;53114;51.138;6.008;2023-07-13T12:05:17;26.65;43.25
66312;HTU21D;53114;51.138;6.008;2023-07-13T12:07:44;26.31;43.48
66312;HTU21D;53114;51.138;6.008;2023-07-13T12:10:29;26.24;44.09
66312;HTU21D;53114;51.138;6.008;2023-07-13T12:13:01;26.47;44.80
66312;HTU21D;53114;51.138;6.008;2023-07-13T12:15:45;26.61;44.41
66312;HTU21D;53114;51.138;6.008;2023-07-13T12:18:19;26.75;44.64
66312;HTU21D;53114;51.138;6.008;2023-07-13T12:20:47;27.07;44.71
66312;HTU21D;53114;51.138;6.008;2023-07-13T12:23:34;27.20;43.22
66312;HTU21D;53114;51.138;6.008;2023-07-13T12:26:04;27.11;42.82
66312;HTU21D;53114;51.138;6.008;2023-07-13T12:28:34;26.86;41.89
66312;HTU21D;53114;51.138;6.008;2023-07-13T12:31:07;26.48;42.06
66312;HTU21D;53114;51.138;6.008;2023-07-13T12:33:41;26.13;42.58
66312;HTU21D;53114;51.138;6.008;2023-07-13T12:36:12;25.88;43.65
66312;HTU21D;53114;51.138;6.008;2023-07-13T12:38:38;25.78;44.35
66312;HTU21D;53114;51.138;6.008;2023-07-13T12:41:04;25.82;44.81
66312;HTU21D;53114;51.138;6.008;2023-07-13T12:43:36;25.82;44.91
66312;HTU21D;53114;51.138;6.008;2023-07-13T12:46:20;25.73;45.25
66312;HTU21D;53114;51.138;6.008;2023-07-13T12:48:53;25.72;45.83
66312;HTU21D;53114;51.138;6.008;2023-07-13T12:51:25;25.75;45.80
66312;HTU21D;53114;51.138;6.008;2023-07-13T12:54:12;25.75;45.96
66312;HTU21D;53114;51.138;6.008;2023-07-13T12:56:39;25.74;45.70
66312;HTU21D;53114;51.138;6.008;2023-07-13T12:59:05;25.76;45.50
66312;HTU21D;53114;51.138;6.008;2023-07-13T13:01:35;25.91;45.57
66312;HTU21D;53114;51.138;6.008;2023-07-13T13:04:04;26.17;45.30
66312;HTU21D;53114;51.138;6.008;2023-07-13T13:06:34;26.39;44.61
66312;HTU21D;53114;51.138;6.008;2023-07-13T13:09:15;26.42;43.97
66312;HTU21D;53114;51.138;6.008;2023-07-13T13:11:42;26.35;44.00
66312;HTU21D;53114;51.138;6.008;2023-07-13T13:14:08;26.15;43.96
66312;HTU21D;53114;51.138;6.008;2023-07-13T13:16:55;25.84;44.90
66312;HTU21D;53114;51.138;6.008;2023-07-13T13:19:27;25.65;44.69
66312;HTU21D;53114;51.138;6.008;2023-07-13T13:21:55;25.46;44.93
66312;HTU21D;53114;51.138;6.008;2023-07-13T13:24:24;25.28;45.16
66312;HTU21D;53114;51.138;6.008;2023-07-13T13:26:53;25.03;46.83
66312;HTU21D;53114;51.138;6.008;2023-07-13T13:29:22;24.83;47.72
66312;HTU21D;53114;51.138;6.008;2023-07-13T13:31:53;24.53;48.60
66312;HTU21D;53114;51.138;6.008;2023-07-13T13:34:21;24.26;50.48
66312;HTU21D;53114;51.138;6.008;2023-07-13T13:36:52;24.23;51.72
66312;HTU21D;53114;51.138;6.008;2023-07-13T13:39:23;24.30;52.51
66312;HTU21D;53114;51.138;6.008;2023-07-13T13:41:51;24.34;52.01
66312;HTU21D;53114;51.138;6.008;2023-07-13T13:44:19;24.24;50.76
66312;HTU21D;53114;51.138;6.008;2023-07-13T13:46:49;24.14;50.16
66312;HTU21D;53114;51.138;6.008;2023-07-13T13:49:21;24.10;49.63
66312;HTU21D;53114;51.138;6.008;2023-07-13T13:51:48;24.09;49.24
66312;HTU21D;53114;51.138;6.008;2023-07-13T13:54:16;24.11;49.02
66312;HTU21D;53114;51.138;6.008;2023-07-13T13:56:44;24.04;49.04
66312;HTU21D;53114;51.138;6.008;2023-07-13T13:59:11;23.91;50.56
66312;HTU21D;53114;51.138;6.008;2023-07-13T14:01:38;23.75;53.17
66312;HTU21D;53114;51.138;6.008;2023-07-13T14:04:05;23.58;55.38
66312;HTU21D;53114;51.138;6.008;2023-07-13T14:06:32;23.42;55.80
66312;HTU21D;53114;51.138;6.008;2023-07-13T14:09:00;23.29;56.27
66312;HTU21D;53114;51.138;6.008;2023-07-13T14:11:26;23.20;56.25
66312;HTU21D;53114;51.138;6.008;2023-07-13T14:13:56;23.15;56.48
66312;HTU21D;53114;51.138;6.008;2023-07-13T14:16:29;23.15;56.81
66312;HTU21D;53114;51.138;6.008;2023-07-13T14:18:56;23.12;57.03
66312;HTU21D;53114;51.138;6.008;2023-07-13T14:21:28;22.94;56.91
66312;HTU21D;53114;51.138;6.008;2023-07-13T14:23:54;22.65;57.98
66312;HTU21D;53114;51.138;6.008;2023-07-13T14:26:23;22.38;59.77
66312;HTU21D;53114;51.138;6.008;2023-07-13T14:28:52;22.17;60.89
66312;HTU21D;53114;51.138;6.008;2023-07-13T14:31:20;22.07;62.10
66312;HTU21D;53114;51.138;6.008;2023-07-13T14:33:47;22.01;62.50
66312;HTU21D;53114;51.138;6.008;2023-07-13T14:36:33;21.98;62.47
66312;HTU21D;53114;51.138;6.008;2023-07-13T14:39:13;21.95;62.06
66312;HTU21D;53114;51.138;6.008;2023-07-13T14:41:40;21.95;61.30
66312;HTU21D;53114;51.138;6.008;2023-07-13T14:44:12;21.94;60.86
66312;HTU21D;53114;51.138;6.008;2023-07-13T14:46:38;21.87;60.62
66312;HTU21D;53114;51.138;6.008;2023-07-13T14:49:16;21.84;60.80
66312;HTU21D;53114;51.138;6.008;2023-07-13T14:51:47;21.84;61.03
66312;HTU21D;53114;51.138;6.008;2023-07-13T14:54:13;21.84;60.34
66312;HTU21D;53114;51.138;6.008;2023-07-13T14:56:40;21.78;59.78
66312;HTU21D;53114;51.138;6.008;2023-07-13T14:59:06;21.74;59.15
66312;HTU21D;53114;51.138;6.008;2023-07-13T15:01:35;21.73;59.32
66312;HTU21D;53114;51.138;6.008;2023-07-13T15:04:02;21.70;59.25
66312;HTU21D;53114;51.138;6.008;2023-07-13T15:06:30;21.69;59.56
66312;HTU21D;53114;51.138;6.008;2023-07-13T15:08:57;21.69;59.78
66312;HTU21D;53114;51.138;6.008;2023-07-13T15:11:23;21.66;59.97
66312;HTU21D;53114;51.138;6.008;2023-07-13T15:13:49;21.67;60.07
66312;HTU21D;53114;51.138;6.008;2023-07-13T15:16:21;21.73;60.41
66312;HTU21D;53114;51.138;6.008;2023-07-13T15:18:48;21.80;60.64
66312;HTU21D;53114;51.138;6.008;2023-07-13T15:21:21;21.85;60.61
66312;HTU21D;53114;51.138;6.008;2023-07-13T15:23:48;21.90;60.89
66312;HTU21D;53114;51.138;6.008;2023-07-13T15:26:16;21.90;60.28
66312;HTU21D;53114;51.138;6.008;2023-07-13T15:28:43;21.89;60.19
66312;HTU21D;53114;51.138;6.008;2023-07-13T15:31:25;21.93;59.68
66312;HTU21D;53114;51.138;6.008;2023-07-13T15:33:54;22.05;59.91
66312;HTU21D;53114;51.138;6.008;2023-07-13T15:36:22;22.16;59.51
66312;HTU21D;53114;51.138;6.008;2023-07-13T15:38:50;22.27;59.96
66312;HTU21D;53114;51.138;6.008;2023-07-13T15:41:25;22.33;60.12
66312;HTU21D;53114;51.138;6.008;2023-07-13T15:43:54;22.47;59.70
66312;HTU21D;53114;51.138;6.008;2023-07-13T15:46:22;22.53;59.04
66312;HTU21D;53114;51.138;6.008;2023-07-13T15:48:50;22.61;59.26
66312;HTU21D;53114;51.138;6.008;2023-07-13T15:51:25;22.70;59.16
66312;HTU21D;53114;51.138;6.008;2023-07-13T15:53:58;22.77;58.77
66312;HTU21D;53114;51.138;6.008;2023-07-13T15:56:27;22.81;57.98
66312;HTU21D;53114;51.138;6.008;2023-07-13T15:58:55;22.84;57.24
66312;HTU21D;53114;51.138;6.008;2023-07-13T16:01:23;22.84;56.88